createdAt,value
2022-12-18T00:00:30.738Z,17.53
2022-12-18T00:03:00.451Z,18.17
2022-12-18T00:05:29.010Z,17.83
2022-12-18T00:07:57.312Z,16.30
2022-12-18T00:10:25.591Z,17.10
2022-12-18T00:12:53.970Z,17.40
2022-12-18T00:15:22.503Z,17.60
2022-12-18T00:17:51.261Z,16.80
2022-12-18T00:20:26.384Z,17.77
2022-12-18T00:22:55.016Z,16.63
2022-12-18T00:25:23.630Z,17.03
2022-12-18T00:27:52.151Z,17.73
2022-12-18T00:30:21.460Z,16.67
2022-12-18T00:32:49.793Z,17.37
2022-12-18T00:35:18.252Z,18.30
2022-12-18T00:37:49.606Z,17.30
2022-12-18T00:40:17.969Z,17.67
2022-12-18T00:42:57.460Z,17.70
2022-12-18T00:45:26.223Z,17.10
2022-12-18T00:47:54.713Z,17.60
2022-12-18T00:50:24.745Z,17.57
2022-12-18T00:52:54.470Z,16.23
2022-12-18T00:55:22.711Z,18.60
2022-12-18T00:57:52.960Z,17.77
2022-12-18T01:00:21.336Z,17.63
2022-12-18T01:02:49.874Z,16.90
2022-12-18T01:05:18.490Z,18.37
2022-12-18T01:07:46.879Z,17.37
2022-12-18T01:10:16.908Z,17.53
2022-12-18T01:12:45.226Z,17.07
2022-12-18T01:15:17.199Z,16.83
2022-12-18T01:17:45.789Z,17.57
2022-12-18T01:20:15.257Z,17.20
2022-12-18T01:22:43.547Z,17.07
2022-12-18T01:25:12.035Z,16.80
2022-12-18T01:27:41.672Z,16.53
2022-12-18T01:30:11.304Z,16.43
2022-12-18T01:32:39.562Z,17.57
2022-12-18T01:35:09.505Z,16.70
2022-12-18T01:37:37.743Z,15.87
2022-12-18T01:40:07.784Z,16.20
2022-12-18T01:42:36.028Z,16.60
2022-12-18T01:45:27.428Z,16.33
2022-12-18T01:47:58.217Z,15.40
2022-12-18T01:50:34.673Z,15.60
2022-12-18T01:53:09.477Z,15.37
2022-12-18T01:55:42.996Z,14.93
2022-12-18T01:58:11.938Z,15.83
2022-12-18T02:00:42.260Z,15.30
2022-12-18T02:03:10.782Z,15.70
2022-12-18T02:05:49.143Z,15.13
2022-12-18T02:08:28.008Z,15.10
2022-12-18T02:11:06.459Z,14.57
2022-12-18T02:13:47.984Z,14.93
2022-12-18T02:16:27.553Z,15.87
2022-12-18T02:19:01.218Z,14.87
2022-12-18T02:21:42.509Z,15.10
2022-12-18T02:24:31.898Z,16.57
2022-12-18T02:27:07.797Z,15.50
2022-12-18T02:29:42.410Z,15.90
2022-12-18T02:32:17.433Z,15.87
2022-12-18T02:34:50.155Z,14.87
2022-12-18T02:37:21.793Z,16.60
2022-12-18T02:39:56.656Z,15.20
2022-12-18T02:42:27.337Z,15.47
2022-12-18T02:44:56.956Z,15.83
2022-12-18T02:47:33.215Z,15.43
2022-12-18T02:50:09.782Z,17.33
2022-12-18T02:52:51.660Z,14.90
2022-12-18T02:55:37.794Z,15.87
2022-12-18T02:58:20.475Z,15.63
2022-12-18T03:01:01.469Z,15.53
2022-12-18T03:03:40.519Z,15.33
2022-12-18T03:06:16.611Z,16.73
2022-12-18T03:08:51.779Z,15.00
2022-12-18T03:11:40.801Z,15.03
2022-12-18T03:14:14.967Z,15.10
2022-12-18T03:16:45.232Z,14.90
2022-12-18T03:19:19.960Z,15.17
2022-12-18T03:21:56.286Z,14.80
2022-12-18T03:24:31.744Z,14.20
2022-12-18T03:27:04.745Z,13.70
2022-12-18T03:29:40.781Z,13.67
2022-12-18T03:32:17.730Z,13.30
2022-12-18T03:34:51.058Z,13.77
2022-12-18T03:37:22.036Z,13.83
2022-12-18T03:39:50.513Z,14.50
2022-12-18T03:42:30.759Z,13.73
2022-12-18T03:45:20.775Z,13.20
2022-12-18T03:48:01.793Z,12.97
2022-12-18T03:50:47.248Z,12.57
2022-12-18T03:53:34.748Z,13.00
2022-12-18T03:56:06.608Z,13.27
2022-12-18T03:58:42.965Z,13.50
2022-12-18T04:01:32.719Z,13.70
2022-12-18T04:04:03.709Z,12.70
2022-12-18T04:06:37.516Z,12.90
2022-12-18T04:09:07.303Z,13.47
2022-12-18T04:11:39.781Z,13.33
2022-12-18T04:14:09.934Z,12.73
2022-12-18T04:16:41.704Z,13.23
2022-12-18T04:19:13.406Z,12.90
2022-12-18T04:21:44.255Z,13.20
2022-12-18T04:24:14.027Z,14.03
2022-12-18T04:26:49.515Z,13.87
2022-12-18T04:29:20.202Z,13.53
2022-12-18T04:31:50.670Z,13.03
2022-12-18T04:34:19.000Z,13.30
2022-12-18T04:36:52.019Z,13.13
2022-12-18T04:39:20.376Z,13.20
2022-12-18T04:41:50.796Z,14.00
2022-12-18T04:44:19.528Z,13.67
2022-12-18T04:46:47.809Z,13.57
2022-12-18T04:49:17.526Z,14.03
2022-12-18T04:51:45.710Z,13.53
2022-12-18T04:54:13.906Z,13.50
2022-12-18T04:56:42.118Z,13.50
2022-12-18T04:59:10.266Z,13.57
2022-12-18T05:01:38.595Z,12.50
2022-12-18T05:04:07.055Z,13.10
2022-12-18T05:06:36.596Z,12.93
2022-12-18T05:09:05.422Z,13.63
2022-12-18T05:11:34.245Z,12.47
2022-12-18T05:14:02.441Z,14.03
2022-12-18T05:16:30.785Z,13.37
2022-12-18T05:18:59.007Z,14.00
2022-12-18T05:21:27.171Z,13.87
2022-12-18T05:23:56.745Z,12.90
2022-12-18T05:26:24.918Z,13.03
2022-12-18T05:28:53.130Z,12.60
2022-12-18T05:31:21.384Z,13.07
2022-12-18T05:33:49.631Z,12.80
2022-12-18T05:36:17.863Z,13.57
2022-12-18T05:38:46.281Z,13.87
2022-12-18T05:41:15.871Z,14.00
2022-12-18T05:43:44.438Z,13.20
2022-12-18T05:46:30.397Z,14.40
2022-12-18T05:49:02.000Z,13.30
2022-12-18T05:51:30.249Z,13.73
2022-12-18T05:53:58.472Z,13.20
2022-12-18T05:56:28.087Z,12.90
2022-12-18T05:58:56.804Z,14.17
2022-12-18T06:01:28.065Z,14.03
2022-12-18T06:03:57.295Z,14.60
2022-12-18T06:06:28.364Z,14.03
2022-12-18T06:08:57.994Z,15.83
2022-12-18T06:11:29.228Z,14.40
2022-12-18T06:13:59.570Z,15.87
2022-12-18T06:16:30.367Z,15.27
2022-12-18T06:18:59.519Z,16.10
2022-12-18T06:21:29.157Z,15.70
2022-12-18T06:23:57.672Z,15.57
2022-12-18T06:26:28.597Z,16.07
2022-12-18T06:28:57.754Z,16.17
2022-12-18T06:31:27.638Z,16.37
2022-12-18T06:33:56.081Z,17.10
2022-12-18T06:36:24.712Z,16.23
2022-12-18T06:38:53.071Z,15.70
2022-12-18T06:41:23.282Z,16.43
2022-12-18T06:43:58.175Z,14.77
2022-12-18T06:46:29.512Z,15.87
2022-12-18T06:48:57.741Z,16.07
2022-12-18T06:51:26.783Z,17.43
2022-12-18T06:53:55.061Z,16.50
2022-12-18T06:56:23.563Z,16.97
2022-12-18T06:58:53.581Z,15.90
2022-12-18T07:01:22.005Z,15.77
2022-12-18T07:03:54.978Z,15.23
2022-12-18T07:06:26.842Z,15.67
2022-12-18T07:08:56.616Z,13.97
2022-12-18T07:11:25.395Z,14.23
2022-12-18T07:13:55.844Z,13.27
2022-12-18T07:16:25.862Z,13.30
2022-12-18T07:18:56.105Z,13.00
2022-12-18T07:21:26.589Z,13.07
2022-12-18T07:23:54.945Z,13.17
2022-12-18T07:26:24.971Z,13.10
2022-12-18T07:28:59.401Z,13.50
2022-12-18T07:31:29.301Z,13.90
2022-12-18T07:33:57.684Z,14.03
2022-12-18T07:36:26.377Z,13.67
2022-12-18T07:38:54.607Z,12.80
2022-12-18T07:41:23.169Z,14.10
2022-12-18T07:43:51.667Z,13.67
2022-12-18T07:46:23.626Z,13.17
2022-12-18T07:48:51.957Z,14.23
2022-12-18T07:51:20.792Z,13.87
2022-12-18T07:53:52.547Z,13.60
2022-12-18T07:56:27.819Z,14.20
2022-12-18T07:58:57.763Z,13.60
2022-12-18T08:01:27.863Z,14.10
2022-12-18T08:03:56.696Z,13.60
2022-12-18T08:06:25.310Z,13.87
2022-12-18T08:08:54.929Z,14.13
2022-12-18T08:11:25.073Z,13.87
2022-12-18T08:13:53.516Z,14.03
2022-12-18T08:16:23.220Z,14.53
2022-12-18T08:18:55.136Z,13.37
2022-12-18T08:21:26.191Z,13.73
2022-12-18T08:23:56.928Z,13.97
2022-12-18T08:26:27.904Z,13.53
2022-12-18T08:28:58.403Z,13.00
2022-12-18T08:31:29.278Z,13.37
2022-12-18T08:33:59.735Z,13.67
2022-12-18T08:36:28.351Z,13.80
2022-12-18T08:38:57.131Z,13.40
2022-12-18T08:41:25.582Z,14.10
2022-12-18T08:44:11.535Z,13.10
2022-12-18T08:46:42.582Z,12.33
2022-12-18T08:49:13.643Z,12.63
2022-12-18T08:51:42.694Z,12.97
2022-12-18T08:54:14.693Z,13.90
2022-12-18T08:56:43.024Z,14.20
2022-12-18T08:59:15.972Z,12.50
2022-12-18T09:01:48.637Z,13.10
2022-12-18T09:04:18.644Z,13.27
2022-12-18T09:06:46.982Z,12.77
2022-12-18T09:09:15.417Z,13.10
2022-12-18T09:11:43.722Z,13.10
2022-12-18T09:14:12.862Z,12.70
2022-12-18T09:16:41.114Z,13.23
2022-12-18T09:19:09.444Z,13.90
2022-12-18T09:21:41.199Z,13.33
2022-12-18T09:24:15.604Z,13.17
2022-12-18T09:26:47.338Z,13.87
2022-12-18T09:29:16.753Z,12.80
2022-12-18T09:31:47.616Z,12.47
2022-12-18T09:34:15.906Z,13.47
2022-12-18T09:36:45.536Z,12.57
2022-12-18T09:39:17.342Z,13.80
2022-12-18T09:41:54.271Z,13.37
2022-12-18T09:44:30.283Z,13.60
2022-12-18T09:47:15.531Z,12.93
2022-12-18T09:49:47.656Z,13.10
2022-12-18T09:52:25.724Z,12.30
2022-12-18T09:55:01.434Z,12.73
2022-12-18T09:57:34.320Z,12.90
2022-12-18T10:00:14.278Z,13.23
2022-12-18T10:02:43.768Z,14.07
2022-12-18T10:05:16.447Z,13.30
2022-12-18T10:07:57.319Z,13.40
2022-12-18T10:10:41.997Z,12.47
2022-12-18T10:13:24.495Z,12.47
2022-12-18T10:16:08.950Z,12.37
2022-12-18T10:19:15.891Z,12.53
2022-12-18T10:21:58.136Z,12.63
2022-12-18T10:24:40.823Z,13.80
2022-12-18T10:27:17.147Z,13.33
2022-12-18T10:29:47.649Z,13.70
2022-12-18T10:32:19.184Z,13.33
2022-12-18T10:34:49.272Z,13.80
2022-12-18T10:37:21.347Z,13.30
2022-12-18T10:40:20.170Z,13.90
2022-12-18T10:43:08.372Z,12.13
2022-12-18T10:45:36.576Z,13.03
2022-12-18T10:48:06.472Z,13.73
2022-12-18T10:51:09.701Z,13.47
2022-12-18T10:53:29.530Z,13.00
2022-12-18T10:56:01.653Z,13.57
2022-12-18T10:58:33.776Z,12.87
2022-12-18T11:01:21.061Z,12.80
2022-12-18T11:04:03.564Z,12.53
2022-12-18T11:06:32.022Z,12.37
2022-12-18T11:09:08.052Z,11.83
2022-12-18T11:11:43.179Z,12.43
2022-12-18T11:14:22.942Z,12.60
2022-12-18T11:17:25.325Z,12.30
2022-12-18T11:19:43.674Z,12.03
2022-12-18T11:22:23.747Z,12.70
2022-12-18T11:27:55.422Z,12.57
2022-12-18T11:30:28.234Z,14.13
2022-12-18T11:33:03.772Z,13.10
2022-12-18T11:35:49.595Z,12.60
2022-12-18T11:38:26.412Z,12.40
2022-12-18T11:41:04.107Z,12.80
2022-12-18T11:43:40.717Z,12.53
2022-12-18T11:46:19.617Z,13.20
2022-12-18T11:48:56.248Z,12.97
2022-12-18T11:51:33.924Z,12.90
2022-12-18T11:54:03.378Z,12.63
2022-12-18T11:56:38.288Z,12.13
2022-12-18T11:59:23.581Z,12.93
2022-12-18T12:02:00.449Z,12.87
2022-12-18T12:05:18.620Z,12.57
2022-12-18T12:07:57.341Z,12.87
2022-12-18T12:10:48.090Z,13.00
2022-12-18T12:13:32.432Z,14.00
2022-12-18T12:16:17.187Z,14.23
2022-12-18T12:19:13.414Z,15.77
2022-12-18T12:21:46.111Z,15.17
2022-12-18T12:24:36.207Z,16.00
2022-12-18T12:27:21.239Z,16.60
2022-12-18T12:30:06.382Z,16.40
2022-12-18T12:33:00.106Z,15.23
2022-12-18T12:35:45.291Z,15.80
2022-12-18T12:38:19.439Z,16.23
2022-12-18T12:41:00.576Z,15.90
2022-12-18T12:43:42.356Z,15.10
2022-12-18T12:46:19.258Z,15.30
2022-12-18T12:48:53.656Z,15.00
2022-12-18T12:51:27.344Z,15.73
2022-12-18T12:53:59.920Z,16.70
2022-12-18T12:56:40.661Z,14.07
2022-12-18T12:59:18.144Z,16.53
2022-12-18T13:01:59.627Z,15.70
2022-12-18T13:04:39.072Z,14.60
2022-12-18T13:07:18.275Z,14.33
2022-12-18T13:10:30.012Z,14.20
2022-12-18T13:13:00.664Z,14.30
2022-12-18T13:15:40.231Z,14.60
2022-12-18T13:18:23.398Z,15.60
2022-12-18T13:21:07.048Z,14.47
2022-12-18T13:23:41.730Z,15.17
2022-12-18T13:26:33.331Z,14.53
2022-12-18T13:29:05.103Z,15.43
2022-12-18T13:32:22.713Z,14.30
2022-12-18T13:35:41.537Z,15.13
2022-12-18T13:38:24.928Z,15.67
2022-12-18T13:41:00.150Z,17.40
2022-12-18T13:43:45.441Z,16.93
2022-12-18T13:46:29.211Z,17.70
2022-12-18T13:49:04.098Z,17.17
2022-12-18T13:51:37.550Z,17.50
2022-12-18T13:54:23.561Z,17.87
2022-12-18T13:56:53.225Z,17.17
2022-12-18T13:59:25.163Z,17.20
2022-12-18T14:01:57.892Z,18.27
2022-12-18T14:04:31.240Z,18.03
2022-12-18T14:07:06.686Z,17.73
2022-12-18T14:09:43.384Z,17.37
2022-12-18T14:12:37.205Z,18.90
2022-12-18T14:15:17.015Z,17.83
2022-12-18T14:17:45.608Z,18.57
2022-12-18T14:20:17.251Z,18.83
2022-12-18T14:22:48.991Z,18.13
2022-12-18T14:25:23.824Z,17.53
2022-12-18T14:27:54.834Z,17.40
2022-12-18T14:30:30.148Z,17.97
2022-12-18T14:33:07.988Z,17.50
2022-12-18T14:35:40.349Z,16.13
2022-12-18T14:38:24.433Z,17.77
2022-12-18T14:40:59.704Z,17.70
2022-12-18T14:43:29.911Z,19.20
2022-12-18T14:45:59.505Z,19.50
2022-12-18T14:48:39.802Z,18.77
2022-12-18T14:51:18.023Z,19.83
2022-12-18T14:53:53.960Z,19.07
2022-12-18T14:56:26.888Z,19.90
2022-12-18T14:58:58.056Z,20.00
2022-12-18T15:01:30.894Z,18.90
2022-12-18T15:04:01.283Z,20.03
2022-12-18T15:06:34.915Z,19.80
2022-12-18T15:09:06.216Z,20.77
2022-12-18T15:11:47.034Z,19.90
2022-12-18T15:14:32.403Z,21.20
2022-12-18T15:17:02.422Z,20.43
2022-12-18T15:19:40.744Z,20.83
2022-12-18T15:22:24.347Z,21.37
2022-12-18T15:24:52.830Z,20.73
2022-12-18T15:27:30.986Z,19.97
2022-12-18T15:30:17.419Z,21.00
2022-12-18T15:32:46.855Z,21.03
2022-12-18T15:35:23.600Z,20.90
2022-12-18T15:37:53.667Z,20.47
2022-12-18T15:40:24.757Z,21.43
2022-12-18T15:43:14.621Z,22.07
2022-12-18T15:45:42.864Z,21.17
2022-12-18T15:48:23.784Z,20.50
2022-12-18T15:50:56.425Z,20.40
2022-12-18T15:53:25.564Z,21.07
2022-12-18T15:56:11.747Z,21.13
2022-12-18T15:58:41.838Z,20.27
2022-12-18T16:01:12.311Z,21.30
2022-12-18T16:03:41.085Z,21.30
2022-12-18T16:06:12.184Z,22.13
2022-12-18T16:08:40.425Z,21.33
2022-12-18T16:11:38.597Z,19.17
2022-12-18T16:14:20.053Z,19.37
2022-12-18T16:16:51.048Z,21.23
2022-12-18T16:19:20.227Z,19.97
2022-12-18T16:21:50.266Z,21.03
2022-12-18T16:24:22.733Z,20.47
2022-12-18T16:26:52.341Z,19.67
2022-12-18T16:29:27.748Z,20.87
2022-12-18T16:31:56.165Z,20.10
2022-12-18T16:34:29.290Z,20.33
2022-12-18T16:37:04.821Z,20.50
2022-12-18T16:39:34.910Z,21.57
2022-12-18T16:42:05.654Z,20.73
2022-12-18T16:44:36.377Z,20.33
2022-12-18T16:47:05.796Z,20.77
2022-12-18T16:49:36.877Z,20.60
2022-12-18T16:52:07.049Z,21.20
2022-12-18T16:54:36.613Z,20.77
2022-12-18T16:57:06.093Z,21.27
2022-12-18T16:59:35.889Z,20.20
2022-12-18T17:02:07.727Z,20.43
2022-12-18T17:04:36.321Z,20.37
2022-12-18T17:07:04.613Z,20.63
2022-12-18T17:09:32.814Z,20.53
2022-12-18T17:12:04.419Z,19.83
2022-12-18T17:14:35.739Z,20.33
2022-12-18T17:17:21.479Z,20.87
2022-12-18T17:19:50.586Z,20.30
2022-12-18T17:22:18.988Z,19.87
2022-12-18T17:24:48.692Z,21.47
2022-12-18T17:27:17.733Z,19.93
2022-12-18T17:29:48.862Z,20.23
2022-12-18T17:32:17.984Z,20.97
2022-12-18T17:34:46.695Z,20.77
2022-12-18T17:37:15.385Z,20.40
2022-12-18T17:39:43.604Z,20.57
2022-12-18T17:42:15.211Z,19.83
2022-12-18T17:44:44.752Z,18.87
2022-12-18T17:47:15.392Z,19.83
2022-12-18T17:49:43.758Z,20.97
2022-12-18T17:52:12.220Z,18.73
2022-12-18T17:54:42.173Z,18.57
2022-12-18T17:57:11.283Z,19.50
2022-12-18T17:59:39.708Z,19.63
2022-12-18T18:02:10.748Z,19.23
2022-12-18T18:04:40.720Z,19.10
2022-12-18T18:07:09.570Z,18.57
2022-12-18T18:09:37.939Z,18.53
2022-12-18T18:12:27.490Z,18.30
2022-12-18T18:14:56.177Z,18.73
2022-12-18T18:17:24.692Z,16.90
2022-12-18T18:19:54.601Z,17.70
2022-12-18T18:22:25.010Z,17.37
2022-12-18T18:24:53.480Z,17.50
2022-12-18T18:27:21.786Z,17.37
2022-12-18T18:29:50.133Z,16.93
2022-12-18T18:32:18.639Z,17.97
2022-12-18T18:34:47.033Z,16.17
2022-12-18T18:37:16.675Z,18.10
2022-12-18T18:39:45.071Z,17.57
2022-12-18T18:42:13.434Z,17.07
2022-12-18T18:44:47.173Z,17.37
2022-12-18T18:47:17.215Z,17.67
2022-12-18T18:49:45.537Z,16.87
2022-12-18T18:52:13.868Z,17.57
2022-12-18T18:55:10.842Z,16.40
2022-12-18T18:57:34.361Z,16.67
2022-12-18T19:00:02.779Z,15.83
2022-12-18T19:02:31.200Z,16.63
2022-12-18T19:04:59.601Z,16.07
2022-12-18T19:07:30.446Z,15.63
2022-12-18T19:10:04.211Z,15.07
2022-12-18T19:12:53.136Z,14.43
2022-12-18T19:15:23.349Z,13.97
2022-12-18T19:17:51.951Z,14.63
2022-12-18T19:20:20.602Z,14.97
2022-12-18T19:22:55.800Z,14.27
2022-12-18T19:25:38.050Z,13.87
2022-12-18T19:28:13.524Z,14.73
2022-12-18T19:30:51.436Z,13.47
2022-12-18T19:33:42.488Z,13.53
2022-12-18T19:36:16.573Z,12.63
2022-12-18T19:38:46.209Z,15.20
2022-12-18T19:41:17.825Z,13.30
2022-12-18T19:43:47.567Z,13.57
2022-12-18T19:46:18.722Z,13.03
2022-12-18T19:48:48.646Z,13.23
2022-12-18T19:51:20.889Z,13.73
2022-12-18T19:53:53.573Z,14.13
2022-12-18T19:56:29.728Z,13.57
2022-12-18T19:58:58.742Z,13.57
2022-12-18T20:01:29.037Z,15.30
2022-12-18T20:03:58.891Z,14.00
2022-12-18T20:06:30.917Z,13.93
2022-12-18T20:09:02.549Z,15.00
2022-12-18T20:11:38.387Z,14.93
2022-12-18T20:14:12.808Z,13.47
2022-12-18T20:16:42.007Z,13.07
2022-12-18T20:19:14.006Z,14.37
2022-12-18T20:21:43.106Z,14.63
2022-12-18T20:24:12.224Z,16.07
2022-12-18T20:26:42.176Z,14.50
2022-12-18T20:29:10.509Z,14.63
2022-12-18T20:31:39.031Z,16.10
2022-12-18T20:34:08.383Z,16.43
2022-12-18T20:36:38.613Z,15.10
2022-12-18T20:39:09.874Z,16.33
2022-12-18T20:41:40.780Z,15.97
2022-12-18T20:44:22.837Z,14.97
2022-12-18T20:46:54.887Z,15.10
2022-12-18T20:49:26.215Z,15.80
2022-12-18T20:51:57.186Z,16.60
2022-12-18T20:54:27.900Z,16.43
2022-12-18T20:56:58.694Z,16.13
2022-12-18T20:59:27.446Z,16.20
2022-12-18T21:01:56.468Z,15.63
2022-12-18T21:04:25.788Z,15.57
2022-12-18T21:06:56.773Z,15.53
2022-12-18T21:09:37.721Z,15.37
2022-12-18T21:12:40.521Z,16.67
2022-12-18T21:15:12.428Z,15.97
2022-12-18T21:17:44.566Z,16.90
2022-12-18T21:20:17.773Z,16.83
2022-12-18T21:22:49.151Z,17.00
2022-12-18T21:25:17.931Z,16.23
2022-12-18T21:27:47.661Z,17.50
2022-12-18T21:30:16.861Z,16.17
2022-12-18T21:32:45.253Z,17.67
2022-12-18T21:35:13.866Z,18.13
2022-12-18T21:37:42.281Z,16.20
2022-12-18T21:40:12.231Z,16.37
2022-12-18T21:42:59.453Z,16.97
2022-12-18T21:45:29.430Z,17.67
2022-12-18T21:47:57.670Z,16.70
2022-12-18T21:50:25.999Z,17.97
2022-12-18T21:52:54.323Z,17.27
2022-12-18T21:55:22.543Z,17.80
2022-12-18T21:57:50.880Z,17.20
2022-12-18T22:00:19.902Z,17.50
2022-12-18T22:03:01.198Z,17.80
2022-12-18T22:05:38.710Z,17.50
2022-12-18T22:08:07.510Z,17.20
2022-12-18T22:10:36.276Z,17.83
2022-12-18T22:13:04.898Z,17.07
2022-12-18T22:15:33.879Z,18.80
2022-12-18T22:18:04.971Z,17.57
2022-12-18T22:20:34.195Z,18.00
2022-12-18T22:23:04.268Z,17.70
2022-12-18T22:25:35.219Z,18.60
2022-12-18T22:28:23.285Z,17.43
2022-12-18T22:30:54.089Z,16.47
2022-12-18T22:33:30.474Z,17.83
2022-12-18T22:35:59.067Z,17.00
2022-12-18T22:38:27.415Z,17.77
2022-12-18T22:40:57.579Z,17.07
2022-12-18T22:43:25.996Z,17.30
2022-12-18T22:45:54.486Z,17.20
2022-12-18T22:48:22.879Z,18.90
2022-12-18T22:50:54.796Z,16.80
2022-12-18T22:53:27.910Z,16.37
2022-12-18T22:56:02.418Z,16.73
2022-12-18T22:58:30.622Z,19.00
2022-12-18T23:00:58.999Z,17.87
2022-12-18T23:03:27.371Z,17.93
2022-12-18T23:06:05.343Z,18.43
2022-12-18T23:08:33.887Z,17.30
2022-12-18T23:11:02.579Z,17.77
2022-12-18T23:13:30.813Z,18.03
2022-12-18T23:15:59.437Z,19.03
2022-12-18T23:18:27.847Z,19.27
2022-12-18T23:20:57.664Z,17.43
2022-12-18T23:23:26.234Z,17.83
2022-12-18T23:26:03.104Z,16.53
2022-12-18T23:28:33.726Z,19.53
2022-12-18T23:31:08.585Z,17.83
2022-12-18T23:33:37.118Z,17.20
2022-12-18T23:36:08.334Z,17.30
2022-12-18T23:38:36.657Z,18.43
2022-12-18T23:41:10.288Z,18.10
2022-12-18T23:43:40.656Z,18.07
2022-12-18T23:46:13.192Z,17.33
2022-12-18T23:48:41.612Z,17.63
2022-12-18T23:51:13.741Z,18.40
2022-12-18T23:53:42.496Z,18.50
2022-12-18T23:56:13.301Z,17.97
2022-12-18T23:58:42.586Z,17.23
